createdAt,value
2023-01-18T00:01:39.847Z,955.5
2023-01-18T00:03:41.729Z,955.5
2023-01-18T00:05:43.623Z,955.5
2023-01-18T00:07:45.332Z,955.5
2023-01-18T00:09:46.935Z,955.6
2023-01-18T00:11:47.963Z,955.6
2023-01-18T00:13:49.102Z,955.6
2023-01-18T00:15:50.787Z,955.6
2023-01-18T00:17:52.711Z,955.7
2023-01-18T00:19:54.125Z,955.7
2023-01-18T00:21:55.575Z,955.7
2023-01-18T00:23:56.736Z,955.7
2023-01-18T00:25:58.510Z,955.6
2023-01-18T00:28:00.360Z,955.6
2023-01-18T00:30:02.318Z,955.7
2023-01-18T00:32:03.678Z,955.6
2023-01-18T00:34:05.047Z,955.5
2023-01-18T00:36:06.147Z,955.6
2023-01-18T00:38:07.351Z,955.5
2023-01-18T00:40:08.961Z,955.6
2023-01-18T00:42:10.902Z,955.6
2023-01-18T00:44:12.246Z,955.5
2023-01-18T00:46:13.277Z,955.5
2023-01-18T00:48:15.308Z,955.5
2023-01-18T00:50:16.742Z,955.5
2023-01-18T00:52:18.414Z,955.5
2023-01-18T00:54:20.319Z,955.5
2023-01-18T00:56:22.313Z,955.5
2023-01-18T00:58:23.601Z,955.5
2023-01-18T01:00:24.845Z,955.5
2023-01-18T01:02:26.348Z,955.6
2023-01-18T01:04:27.438Z,955.5
2023-01-18T01:06:29.242Z,955.5
2023-01-18T01:08:30.793Z,955.6
2023-01-18T01:10:32.038Z,955.6
2023-01-18T01:12:34.000Z,955.6
2023-01-18T01:14:35.083Z,955.6
2023-01-18T01:16:36.612Z,955.6
2023-01-18T01:18:38.356Z,955.7
2023-01-18T01:20:39.442Z,955.7
2023-01-18T01:22:41.485Z,955.7
2023-01-18T01:24:42.828Z,955.8
2023-01-18T01:26:44.055Z,955.7
2023-01-18T01:28:45.819Z,955.7
2023-01-18T01:30:47.646Z,955.7
2023-01-18T01:32:48.829Z,955.8
2023-01-18T01:34:50.314Z,955.8
2023-01-18T01:38:53.136Z,955.8
2023-01-18T01:40:54.393Z,955.8
2023-01-18T01:42:56.099Z,955.9
2023-01-18T01:44:56.910Z,955.8
2023-01-18T01:46:58.868Z,955.8
2023-01-18T01:49:00.381Z,955.9
2023-01-18T01:51:01.619Z,956
2023-01-18T01:53:03.336Z,956
2023-01-18T01:55:04.431Z,956
2023-01-18T01:57:06.313Z,956
2023-01-18T01:59:07.687Z,956
2023-01-18T02:01:09.185Z,956.1
2023-01-18T02:03:10.676Z,956
2023-01-18T02:05:12.547Z,956.1
2023-01-18T02:07:13.795Z,956.1
2023-01-18T02:09:15.045Z,956.1
2023-01-18T02:11:16.206Z,956.1
2023-01-18T02:13:17.306Z,956
2023-01-18T02:15:20.139Z,956.1
2023-01-18T02:17:20.650Z,956.1
2023-01-18T02:19:21.719Z,956.1
2023-01-18T02:21:22.791Z,956.1
2023-01-18T02:23:23.921Z,956.1
2023-01-18T02:25:25.389Z,956.2
2023-01-18T02:27:27.236Z,956.2
2023-01-18T02:29:28.497Z,956.1
2023-01-18T02:31:29.912Z,956.1
2023-01-18T02:33:31.520Z,956.2
2023-01-18T02:35:32.925Z,956.2
2023-01-18T02:37:34.673Z,956.2
2023-01-18T02:39:36.484Z,956.2
2023-01-18T02:41:37.796Z,956.2
2023-01-18T02:43:39.298Z,956.2
2023-01-18T02:47:42.646Z,956.2
2023-01-18T02:49:44.105Z,956.2
2023-01-18T02:51:46.008Z,956.1
2023-01-18T02:53:47.371Z,956.3
2023-01-18T02:57:49.763Z,956.2
2023-01-18T02:59:51.194Z,956.3
2023-01-18T03:01:53.101Z,956.3
2023-01-18T03:03:54.199Z,956.4
2023-01-18T03:05:56.150Z,956.4
2023-01-18T03:07:57.770Z,956.3
2023-01-18T03:09:58.980Z,956.4
2023-01-18T03:12:00.364Z,956.4
2023-01-18T03:14:02.163Z,956.4
2023-01-18T03:16:03.785Z,956.3
2023-01-18T03:18:04.840Z,956.4
2023-01-18T03:20:06.189Z,956.4
2023-01-18T03:22:07.960Z,956.3
2023-01-18T03:24:09.458Z,956.4
2023-01-18T03:26:10.498Z,956.4
2023-01-18T03:28:12.245Z,956.4
2023-01-18T03:30:13.438Z,956.4
2023-01-18T03:32:15.321Z,956.4
2023-01-18T03:34:16.967Z,956.4
2023-01-18T03:36:18.344Z,956.3
2023-01-18T03:40:20.853Z,956.4
2023-01-18T03:42:22.536Z,956.5
2023-01-18T03:46:25.020Z,956.4
2023-01-18T03:48:26.786Z,956.3
2023-01-18T03:50:28.241Z,956.4
2023-01-18T03:52:29.999Z,956.5
2023-01-18T03:54:31.552Z,956.4
2023-01-18T03:56:33.382Z,956.5
2023-01-18T03:58:34.705Z,956.5
2023-01-18T04:00:36.480Z,956.5
2023-01-18T04:02:38.353Z,956.5
2023-01-18T04:04:39.851Z,956.5
2023-01-18T04:06:41.310Z,956.7
2023-01-18T04:08:42.959Z,956.6
2023-01-18T04:10:44.411Z,956.6
2023-01-18T04:12:46.319Z,956.6
2023-01-18T04:14:47.438Z,956.6
2023-01-18T04:16:49.035Z,956.6
2023-01-18T04:18:50.893Z,956.6
2023-01-18T04:20:52.920Z,956.7
2023-01-18T04:22:54.382Z,956.7
2023-01-18T04:24:55.948Z,956.7
2023-01-18T04:28:59.072Z,956.7
2023-01-18T04:29:43.013Z,956.7
2023-01-18T04:33:45.921Z,956.8
2023-01-18T04:35:47.952Z,956.8
2023-01-18T04:37:49.883Z,956.7
2023-01-18T04:39:51.332Z,956.8
2023-01-18T04:41:52.754Z,956.8
2023-01-18T04:43:54.469Z,956.8
2023-01-18T04:45:56.033Z,956.9
2023-01-18T04:47:57.233Z,956.9
2023-01-18T04:49:58.692Z,956.9
2023-01-18T04:52:00.386Z,957.1
2023-01-18T04:54:02.126Z,957
2023-01-18T04:56:03.183Z,957
2023-01-18T04:58:04.372Z,957.1
2023-01-18T05:00:08.644Z,957
2023-01-18T05:02:08.091Z,957.2
2023-01-18T05:04:10.142Z,957.1
2023-01-18T05:06:11.320Z,957.1
2023-01-18T05:08:12.619Z,957.2
2023-01-18T05:10:13.956Z,957.2
2023-01-18T05:12:15.365Z,957.2
2023-01-18T05:14:16.732Z,957.3
2023-01-18T05:16:18.569Z,957.3
2023-01-18T05:18:19.768Z,957.4
2023-01-18T05:22:22.739Z,957.5
2023-01-18T05:24:24.561Z,957.5
2023-01-18T05:26:25.717Z,957.5
2023-01-18T05:28:27.342Z,957.7
2023-01-18T05:30:28.881Z,957.6
2023-01-18T05:32:30.330Z,957.6
2023-01-18T05:34:31.503Z,957.7
2023-01-18T05:36:33.457Z,957.7
2023-01-18T05:38:35.519Z,957.7
2023-01-18T05:40:36.668Z,957.7
2023-01-18T05:42:38.440Z,957.7
2023-01-18T05:44:40.212Z,957.7
2023-01-18T05:46:41.889Z,957.8
2023-01-18T05:48:43.581Z,957.8
2023-01-18T05:50:44.950Z,957.9
2023-01-18T05:52:46.213Z,957.9
2023-01-18T05:54:48.250Z,957.9
2023-01-18T05:56:50.060Z,957.8
2023-01-18T05:58:51.702Z,957.9
2023-01-18T06:00:53.135Z,957.9
2023-01-18T06:02:54.658Z,957.9
2023-01-18T06:04:55.934Z,958
2023-01-18T06:06:57.244Z,958.1
2023-01-18T06:08:59.106Z,958
2023-01-18T06:11:00.850Z,958.1
2023-01-18T06:13:02.761Z,958.3
2023-01-18T06:15:04.685Z,958.3
2023-01-18T06:17:06.692Z,958.3
2023-01-18T06:19:08.586Z,958.2
2023-01-18T06:21:09.974Z,958.3
2023-01-18T06:23:11.016Z,958.3
2023-01-18T06:25:12.137Z,958.2
2023-01-18T06:27:13.722Z,958.3
2023-01-18T06:31:16.904Z,958.5
2023-01-18T06:33:17.927Z,958.6
2023-01-18T06:35:19.371Z,958.5
2023-01-18T06:37:21.051Z,958.7
2023-01-18T06:41:24.317Z,958.7
2023-01-18T06:43:26.201Z,958.6
2023-01-18T06:45:27.682Z,958.8
2023-01-18T06:47:37.513Z,958.7
2023-01-18T06:49:30.953Z,958.7
2023-01-18T06:51:32.333Z,958.7
2023-01-18T06:53:36.802Z,958.8
2023-01-18T06:55:35.957Z,958.9
2023-01-18T06:57:37.513Z,958.9
2023-01-18T06:59:38.806Z,959
2023-01-18T07:01:40.112Z,959
2023-01-18T07:03:41.919Z,959
2023-01-18T07:05:43.160Z,959.1
2023-01-18T07:07:44.471Z,959
2023-01-18T07:09:46.033Z,959.1
2023-01-18T07:13:48.870Z,959.1
2023-01-18T07:15:50.537Z,959.2
2023-01-18T07:17:51.892Z,959.1
2023-01-18T07:19:53.334Z,959.1
2023-01-18T07:23:56.462Z,959.3
2023-01-18T07:25:57.681Z,959.3
2023-01-18T07:27:58.904Z,959.3
2023-01-18T07:30:00.508Z,959.4
2023-01-18T07:32:02.068Z,959.5
2023-01-18T07:34:03.797Z,959.4
2023-01-18T07:36:04.955Z,959.4
2023-01-18T07:38:06.238Z,959.5
2023-01-18T07:40:07.389Z,959.5
2023-01-18T07:42:08.840Z,959.6
2023-01-18T07:44:10.483Z,959.7
2023-01-18T07:46:11.950Z,959.7
2023-01-18T07:48:13.043Z,959.7
2023-01-18T07:50:14.347Z,959.7
2023-01-18T07:52:16.060Z,959.8
2023-01-18T07:54:17.696Z,959.8
2023-01-18T07:56:19.507Z,959.8
2023-01-18T07:58:20.734Z,959.9
2023-01-18T08:00:22.065Z,959.9
2023-01-18T08:02:23.344Z,960
2023-01-18T08:04:24.387Z,960
2023-01-18T08:06:25.562Z,959.9
2023-01-18T08:08:27.064Z,960.1
2023-01-18T08:10:28.489Z,960.2
2023-01-18T08:12:29.685Z,960.2
2023-01-18T08:14:31.229Z,960.2
2023-01-18T08:18:34.792Z,960.3
2023-01-18T08:20:36.369Z,960.3
2023-01-18T08:22:37.592Z,960.3
2023-01-18T08:24:39.042Z,960.4
2023-01-18T08:26:40.543Z,960.3
2023-01-18T08:28:42.384Z,960.3
2023-01-18T08:30:43.512Z,960.3
2023-01-18T08:32:45.118Z,960.4
2023-01-18T08:34:46.544Z,960.5
2023-01-18T08:36:48.592Z,960.5
2023-01-18T08:38:50.492Z,960.6
2023-01-18T08:40:52.007Z,960.6
2023-01-18T08:42:53.660Z,960.6
2023-01-18T08:44:55.257Z,960.7
2023-01-18T08:46:56.922Z,960.7
2023-01-18T08:48:58.372Z,960.7
2023-01-18T08:51:00.107Z,960.8
2023-01-18T08:53:01.952Z,960.8
2023-01-18T08:55:03.489Z,960.8
2023-01-18T08:57:05.357Z,960.9
2023-01-18T09:01:09.315Z,961
2023-01-18T09:03:10.684Z,961.1
2023-01-18T09:05:12.250Z,961.1
2023-01-18T09:07:14.152Z,961.1
2023-01-18T09:09:15.457Z,961.1
2023-01-18T09:11:16.631Z,961.1
2023-01-18T09:13:18.654Z,961.1
2023-01-18T09:15:19.719Z,961.1
2023-01-18T09:17:21.677Z,961.2
2023-01-18T09:19:23.212Z,961.3
2023-01-18T09:21:25.025Z,961.3
2023-01-18T09:23:26.651Z,961.4
2023-01-18T09:25:28.687Z,961.4
2023-01-18T09:27:29.864Z,961.4
2023-01-18T09:29:31.680Z,961.4
2023-01-18T09:31:33.339Z,961.5
2023-01-18T09:33:37.730Z,961.6
2023-01-18T09:35:36.703Z,961.6
2023-01-18T09:37:38.170Z,961.6
2023-01-18T09:39:50.931Z,961.6
2023-01-18T09:43:42.515Z,961.7
2023-01-18T09:45:44.357Z,961.7
2023-01-18T09:47:45.598Z,961.8
2023-01-18T09:49:47.563Z,961.9
2023-01-18T09:51:48.693Z,961.9
2023-01-18T09:53:50.213Z,961.9
2023-01-18T09:55:52.055Z,962
2023-01-18T09:57:53.545Z,962
2023-01-18T09:59:54.968Z,962
2023-01-18T10:01:56.462Z,962.1
2023-01-18T10:03:57.463Z,962.1
2023-01-18T10:05:59.142Z,962.2
2023-01-18T10:10:02.197Z,962.3
2023-01-18T10:12:03.967Z,962.2
2023-01-18T10:14:05.321Z,962.3
2023-01-18T10:16:07.239Z,962.3
2023-01-18T10:18:08.632Z,962.3
2023-01-18T10:20:10.245Z,962.4
2023-01-18T10:22:11.736Z,962.3
2023-01-18T10:24:13.495Z,962.4
2023-01-18T10:26:15.109Z,962.3
2023-01-18T10:28:16.977Z,962.4
2023-01-18T10:30:18.646Z,962.4
2023-01-18T10:32:20.501Z,962.4
2023-01-18T10:34:22.339Z,962.4
2023-01-18T10:36:23.686Z,962.4
2023-01-18T10:38:25.590Z,962.5
2023-01-18T10:40:27.497Z,962.5
2023-01-18T10:42:29.135Z,962.5
2023-01-18T10:44:30.239Z,962.6
2023-01-18T10:46:31.747Z,962.6
2023-01-18T10:48:33.693Z,962.7
2023-01-18T10:52:36.814Z,962.8
2023-01-18T10:54:38.473Z,962.8
2023-01-18T10:56:40.186Z,962.9
2023-01-18T10:58:41.547Z,962.8
2023-01-18T11:00:43.119Z,962.8
2023-01-18T11:02:45.046Z,962.9
2023-01-18T11:04:46.056Z,962.9
2023-01-18T11:06:47.881Z,962.9
2023-01-18T11:08:49.524Z,962.9
2023-01-18T11:10:50.985Z,962.9
2023-01-18T11:12:52.233Z,963
2023-01-18T11:14:53.666Z,963
2023-01-18T11:17:39.429Z,963.1
2023-01-18T11:19:41.054Z,963.1
2023-01-18T11:21:42.178Z,963.2
2023-01-18T11:23:44.043Z,963.2
2023-01-18T11:25:45.580Z,963.2
2023-01-18T11:27:46.827Z,963.3
2023-01-18T11:29:48.481Z,963.2
2023-01-18T11:31:50.302Z,963.3
2023-01-18T11:33:52.037Z,963.3
2023-01-18T11:35:53.392Z,963.3
2023-01-18T11:39:56.326Z,963.4
2023-01-18T11:41:57.839Z,963.3
2023-01-18T11:46:01.227Z,963.4
2023-01-18T11:48:03.175Z,963.3
2023-01-18T11:50:13.595Z,963.4
2023-01-18T11:52:06.154Z,963.4
2023-01-18T11:54:08.200Z,963.4
2023-01-18T11:56:09.569Z,963.5
2023-01-18T11:58:10.582Z,963.5
2023-01-18T12:00:12.566Z,963.6
2023-01-18T12:02:13.999Z,963.6
2023-01-18T12:04:15.496Z,963.6
2023-01-18T12:06:16.742Z,963.6
2023-01-18T12:08:18.514Z,963.5
2023-01-18T12:10:20.013Z,963.6
2023-01-18T12:12:21.301Z,963.7
2023-01-18T12:14:22.997Z,963.6
2023-01-18T12:16:24.932Z,963.6
2023-01-18T12:18:26.018Z,963.7
2023-01-18T12:20:27.207Z,963.7
2023-01-18T12:22:28.394Z,963.7
2023-01-18T12:24:29.983Z,963.7
2023-01-18T12:28:32.931Z,963.8
2023-01-18T12:30:34.240Z,963.9
2023-01-18T12:32:36.037Z,963.8
2023-01-18T12:34:37.511Z,963.9
2023-01-18T12:36:38.923Z,963.9
2023-01-18T12:38:39.945Z,963.9
2023-01-18T12:40:41.564Z,964
2023-01-18T12:42:43.098Z,964
2023-01-18T12:44:44.125Z,964
2023-01-18T12:46:45.763Z,964
2023-01-18T12:48:46.855Z,964
2023-01-18T12:50:48.213Z,964
2023-01-18T12:52:49.490Z,964.1
2023-01-18T12:54:51.120Z,964.2
2023-01-18T12:56:52.233Z,964.2
2023-01-18T12:58:54.061Z,964.1
2023-01-18T13:00:55.494Z,964.2
2023-01-18T13:02:57.070Z,964.3
2023-01-18T13:04:58.283Z,964.2
2023-01-18T13:07:00.021Z,964.2
2023-01-18T13:09:01.767Z,964.3
2023-01-18T13:11:03.427Z,964.3
2023-01-18T13:13:05.001Z,964.4
2023-01-18T13:15:06.817Z,964.4
2023-01-18T13:17:07.947Z,964.4
2023-01-18T13:19:09.518Z,964.4
2023-01-18T13:21:10.922Z,964.5
2023-01-18T13:23:12.432Z,964.6
2023-01-18T13:25:13.816Z,964.6
2023-01-18T13:27:15.679Z,964.5
2023-01-18T13:29:17.358Z,964.7
2023-01-18T13:31:19.073Z,964.7
2023-01-18T13:33:20.992Z,964.8
2023-01-18T13:35:23.804Z,964.8
2023-01-18T13:37:23.282Z,964.9
2023-01-18T13:39:25.229Z,965
2023-01-18T13:41:27.196Z,965
2023-01-18T13:43:28.283Z,965.1
2023-01-18T13:45:30.274Z,965
2023-01-18T13:47:31.994Z,965.2
2023-01-18T13:49:37.511Z,965.2
2023-01-18T13:51:34.763Z,965.3
2023-01-18T13:53:35.831Z,965.3
2023-01-18T13:55:37.033Z,965.4
2023-01-18T13:57:38.236Z,965.4
2023-01-18T13:59:39.284Z,965.5
2023-01-18T14:03:42.509Z,965.6
2023-01-18T14:05:43.752Z,965.7
2023-01-18T14:07:45.636Z,965.7
2023-01-18T14:09:47.204Z,965.7
2023-01-18T14:11:48.766Z,965.7
2023-01-18T14:13:50.385Z,965.7
2023-01-18T14:15:51.687Z,965.9
2023-01-18T14:17:58.435Z,965.8
2023-01-18T14:19:54.904Z,965.8
2023-01-18T14:21:56.885Z,965.9
2023-01-18T14:23:58.745Z,965.9
2023-01-18T14:25:59.847Z,966
2023-01-18T14:28:01.222Z,966.1
2023-01-18T14:30:02.877Z,966.1
2023-01-18T14:32:04.831Z,966.1
2023-01-18T14:36:07.835Z,966.2
2023-01-18T14:38:17.675Z,966.3
2023-01-18T14:40:10.727Z,966.3
2023-01-18T14:42:12.587Z,966.3
2023-01-18T14:46:15.980Z,966.4
2023-01-18T14:48:16.786Z,966.5
2023-01-18T14:52:19.333Z,966.5
2023-01-18T14:54:21.316Z,966.6
2023-01-18T14:56:22.809Z,966.6
2023-01-18T14:58:24.650Z,966.7
2023-01-18T15:00:25.966Z,966.7
2023-01-18T15:02:27.950Z,966.7
2023-01-18T15:04:29.160Z,966.7
2023-01-18T15:06:30.667Z,966.8
2023-01-18T15:08:32.624Z,966.8
2023-01-18T15:10:34.141Z,966.9
2023-01-18T15:12:35.332Z,966.9
2023-01-18T15:14:36.537Z,967
2023-01-18T15:16:38.139Z,967
2023-01-18T15:18:39.201Z,967
2023-01-18T15:20:40.617Z,967
2023-01-18T15:22:41.976Z,967
2023-01-18T15:24:43.121Z,967.1
2023-01-18T15:26:45.035Z,967
2023-01-18T15:28:46.441Z,967
2023-01-18T15:30:48.151Z,967.1
2023-01-18T15:34:50.604Z,967.2
2023-01-18T15:36:51.687Z,967.2
2023-01-18T15:38:53.169Z,967.3
2023-01-18T15:40:54.949Z,967.3
2023-01-18T15:42:56.305Z,967.4
2023-01-18T15:44:57.933Z,967.4
2023-01-18T15:46:59.835Z,967.4
2023-01-18T15:49:01.664Z,967.4
2023-01-18T15:51:02.990Z,967.5
2023-01-18T15:53:04.498Z,967.6
2023-01-18T15:55:05.701Z,967.5
2023-01-18T15:57:07.445Z,967.6
2023-01-18T15:59:09.253Z,967.8
2023-01-18T16:01:11.134Z,967.7
2023-01-18T16:03:12.343Z,967.7
2023-01-18T16:05:14.018Z,967.7
2023-01-18T16:07:15.711Z,967.8
2023-01-18T16:09:17.716Z,967.9
2023-01-18T16:11:18.820Z,967.9
2023-01-18T16:13:20.685Z,967.9
2023-01-18T16:15:22.420Z,967.9
2023-01-18T16:17:23.954Z,968
2023-01-18T16:19:25.151Z,968
2023-01-18T16:21:27.014Z,968
2023-01-18T16:23:28.865Z,968.1
2023-01-18T16:25:30.127Z,968.1
2023-01-18T16:27:32.152Z,968.1
2023-01-18T16:29:33.947Z,968.2
2023-01-18T16:33:36.721Z,968.1
2023-01-18T16:35:38.447Z,968.2
2023-01-18T16:37:39.707Z,968.2
2023-01-18T16:39:41.489Z,968.3
2023-01-18T16:41:42.645Z,968.3
2023-01-18T16:43:44.444Z,968.3
2023-01-18T16:45:45.714Z,968.2
2023-01-18T16:47:47.152Z,968.3
2023-01-18T16:49:48.745Z,968.3
2023-01-18T16:51:50.735Z,968.4
2023-01-18T16:53:51.491Z,968.3
2023-01-18T16:55:52.959Z,968.4
2023-01-18T16:57:54.790Z,968.3
2023-01-18T16:59:56.538Z,968.4
2023-01-18T17:01:57.899Z,968.5
2023-01-18T17:03:59.622Z,968.5
2023-01-18T17:06:00.936Z,968.5
2023-01-18T17:08:02.497Z,968.5
2023-01-18T17:10:04.337Z,968.7
2023-01-18T17:12:06.039Z,968.7
2023-01-18T17:16:08.832Z,968.7
2023-01-18T17:18:10.043Z,968.6
2023-01-18T17:20:11.677Z,968.6
2023-01-18T17:22:12.870Z,968.7
2023-01-18T17:24:13.984Z,968.8
2023-01-18T17:26:15.747Z,968.8
2023-01-18T17:28:17.585Z,968.9
2023-01-18T17:30:19.215Z,969
2023-01-18T17:32:21.177Z,969
2023-01-18T17:34:26.630Z,969.1
2023-01-18T17:36:24.387Z,969
2023-01-18T17:38:29.147Z,969
2023-01-18T17:40:38.335Z,969.1
2023-01-18T17:42:30.355Z,969.2
2023-01-18T17:44:36.451Z,969.3
2023-01-18T17:46:32.401Z,969.2
2023-01-18T17:48:33.524Z,969.3
2023-01-18T17:50:35.464Z,969.3
2023-01-18T17:52:36.956Z,969.3
2023-01-18T17:54:38.402Z,969.4
2023-01-18T17:56:39.634Z,969.4
2023-01-18T17:58:41.448Z,969.4
2023-01-18T18:00:42.548Z,969.5
2023-01-18T18:01:26.629Z,969.5
2023-01-18T18:03:28.564Z,969.6
2023-01-18T18:05:29.970Z,969.5
2023-01-18T18:07:31.161Z,969.6
2023-01-18T18:09:32.819Z,969.6
2023-01-18T18:11:34.746Z,969.7
2023-01-18T18:13:35.950Z,969.6
2023-01-18T18:15:37.689Z,969.7
2023-01-18T18:17:39.129Z,969.7
2023-01-18T18:19:40.970Z,969.8
2023-01-18T18:21:42.116Z,969.9
2023-01-18T18:23:43.214Z,969.8
2023-01-18T18:25:44.763Z,969.9
2023-01-18T18:29:48.602Z,969.9
2023-01-18T18:31:50.624Z,970
2023-01-18T18:33:52.365Z,970
2023-01-18T18:35:53.769Z,970.1
2023-01-18T18:37:55.434Z,970
2023-01-18T18:39:56.494Z,970.1
2023-01-18T18:41:57.749Z,970.2
2023-01-18T18:43:59.506Z,970.1
2023-01-18T18:46:00.770Z,970.2
2023-01-18T18:48:02.218Z,970.2
2023-01-18T18:50:03.760Z,970.2
2023-01-18T18:52:05.501Z,970.2
2023-01-18T18:54:07.411Z,970.2
2023-01-18T18:56:08.659Z,970.4
2023-01-18T18:58:10.295Z,970.4
2023-01-18T19:00:11.907Z,970.5
2023-01-18T19:02:15.288Z,970.5
2023-01-18T19:04:14.634Z,970.5
2023-01-18T19:06:16.659Z,970.7
2023-01-18T19:08:18.600Z,970.6
2023-01-18T19:12:22.005Z,970.8
2023-01-18T19:14:23.612Z,970.7
2023-01-18T19:16:25.029Z,970.7
2023-01-18T19:18:26.347Z,970.7
2023-01-18T19:20:27.409Z,970.8
2023-01-18T19:22:29.349Z,970.8
2023-01-18T19:24:30.942Z,970.8
2023-01-18T19:26:32.668Z,970.9
2023-01-18T19:28:34.676Z,970.9
2023-01-18T19:30:36.767Z,970.9
2023-01-18T19:32:38.546Z,970.9
2023-01-18T19:34:40.637Z,971
2023-01-18T19:36:42.112Z,970.9
2023-01-18T19:38:45.938Z,971
2023-01-18T19:40:44.784Z,970.9
2023-01-18T19:42:46.720Z,970.9
2023-01-18T19:44:48.102Z,970.9
2023-01-18T19:46:49.993Z,970.9
2023-01-18T19:48:51.687Z,971
2023-01-18T19:50:53.517Z,971
2023-01-18T19:54:56.948Z,971.1
2023-01-18T19:56:59.004Z,971.1
2023-01-18T19:59:00.463Z,971.2
2023-01-18T20:01:01.795Z,971.1
2023-01-18T20:03:03.259Z,971.2
2023-01-18T20:05:04.250Z,971.3
2023-01-18T20:07:05.586Z,971.3
2023-01-18T20:09:12.790Z,971.3
2023-01-18T20:11:08.770Z,971.4
2023-01-18T20:13:10.690Z,971.4
2023-01-18T20:15:12.080Z,971.4
2023-01-18T20:17:13.867Z,971.4
2023-01-18T20:19:15.634Z,971.5
2023-01-18T20:21:17.466Z,971.4
2023-01-18T20:23:19.597Z,971.4
2023-01-18T20:25:20.734Z,971.5
2023-01-18T20:27:21.877Z,971.5
2023-01-18T20:29:23.603Z,971.5
2023-01-18T20:31:25.595Z,971.5
2023-01-18T20:33:27.582Z,971.6
2023-01-18T20:35:29.065Z,971.6
2023-01-18T20:37:30.286Z,971.7
2023-01-18T20:39:32.133Z,971.7
2023-01-18T20:43:35.001Z,971.8
2023-01-18T20:45:36.337Z,971.8
2023-01-18T20:47:37.465Z,971.8
2023-01-18T20:49:39.437Z,971.8
2023-01-18T20:51:40.609Z,971.9
2023-01-18T20:53:42.383Z,971.8
2023-01-18T20:55:43.607Z,971.9
2023-01-18T20:57:45.653Z,971.9
2023-01-18T20:59:47.641Z,971.9
2023-01-18T21:01:49.410Z,971.9
2023-01-18T21:03:50.569Z,972
2023-01-18T21:05:52.354Z,972
2023-01-18T21:07:54.165Z,972
2023-01-18T21:09:55.553Z,972.1
2023-01-18T21:11:57.479Z,972.2
2023-01-18T21:13:59.260Z,972.1
2023-01-18T21:16:00.861Z,972.1
2023-01-18T21:18:04.023Z,972.1
2023-01-18T21:20:03.980Z,972.1
2023-01-18T21:22:05.997Z,972.1
2023-01-18T21:26:09.467Z,972.1
2023-01-18T21:28:10.724Z,972.2
2023-01-18T21:30:11.984Z,972.1
2023-01-18T21:32:14.138Z,972.2
2023-01-18T21:34:16.215Z,972.3
2023-01-18T21:36:18.248Z,972.2
2023-01-18T21:38:20.116Z,972.4
2023-01-18T21:40:22.044Z,972.3
2023-01-18T21:42:23.599Z,972.3
2023-01-18T21:44:24.771Z,972.3
2023-01-18T21:46:25.945Z,972.3
2023-01-18T21:48:27.203Z,972.4
2023-01-18T21:50:28.969Z,972.4
2023-01-18T21:52:30.514Z,972.4
2023-01-18T21:54:31.766Z,972.3
2023-01-18T21:56:33.164Z,972.4
2023-01-18T21:58:34.940Z,972.5
2023-01-18T22:00:36.217Z,972.6
2023-01-18T22:02:37.760Z,972.7
2023-01-18T22:04:39.496Z,972.7
2023-01-18T22:06:40.934Z,972.8
2023-01-18T22:08:42.415Z,972.8
2023-01-18T22:10:43.799Z,972.7
2023-01-18T22:12:45.910Z,972.8
2023-01-18T22:14:47.814Z,972.7
2023-01-18T22:16:49.293Z,972.7
2023-01-18T22:18:50.468Z,972.8
2023-01-18T22:20:52.291Z,972.8
2023-01-18T22:22:53.959Z,972.8
2023-01-18T22:24:55.649Z,972.8
2023-01-18T22:26:57.155Z,972.9
2023-01-18T22:28:58.909Z,972.9
2023-01-18T22:31:00.808Z,973
2023-01-18T22:33:02.274Z,973
2023-01-18T22:35:03.455Z,973
2023-01-18T22:37:04.895Z,973.1
2023-01-18T22:39:06.311Z,973
2023-01-18T22:41:07.597Z,973.1
2023-01-18T22:43:09.311Z,973
2023-01-18T22:45:11.262Z,973.1
2023-01-18T22:47:13.178Z,973.1
2023-01-18T22:49:14.689Z,973.1
2023-01-18T22:51:16.203Z,973.1
2023-01-18T22:53:17.637Z,973.2
2023-01-18T22:55:19.748Z,973.3
2023-01-18T22:57:21.071Z,973.3
2023-01-18T22:59:22.472Z,973.3
2023-01-18T23:01:24.057Z,973.2
2023-01-18T23:03:25.796Z,973.4
2023-01-18T23:07:28.824Z,973.3
2023-01-18T23:09:30.207Z,973.4
2023-01-18T23:11:31.403Z,973.4
2023-01-18T23:13:32.986Z,973.4
2023-01-18T23:15:35.187Z,973.5
2023-01-18T23:17:36.691Z,973.5
2023-01-18T23:19:38.020Z,973.5
2023-01-18T23:21:39.971Z,973.4
2023-01-18T23:23:41.816Z,973.5
2023-01-18T23:25:43.194Z,973.4
2023-01-18T23:27:44.693Z,973.4
2023-01-18T23:29:46.313Z,973.4
2023-01-18T23:31:48.308Z,973.5
2023-01-18T23:33:50.175Z,973.5
2023-01-18T23:35:52.256Z,973.5
2023-01-18T23:37:54.156Z,973.5
2023-01-18T23:39:55.517Z,973.4
2023-01-18T23:41:57.133Z,973.5
2023-01-18T23:43:58.382Z,973.4
2023-01-18T23:45:59.690Z,973.4
2023-01-18T23:48:01.218Z,973.5
2023-01-18T23:50:02.569Z,973.5
2023-01-18T23:52:04.347Z,973.6
2023-01-18T23:54:06.119Z,973.6
2023-01-18T23:56:07.390Z,973.7
2023-01-18T23:58:09.103Z,973.6
